Time;durP1;ratioP1;P1;durP2;ratioP2;P2;SDS_P1;SDS_P2;PMS_P1;PMS_P2;Temp;Humidity;BMP_temperature;BMP_pressure;BME280_temperature;BME280_humidity;BME280_pressure;Samples;Min_cycle;Max_cycle;Signal;HPM_P1;HPM_P2
2023/09/25 00:01:46;;;;;;;8.83;8.03;;;12.10;99.90;;;;;;5020584;28;20475;-90
2023/09/25 00:04:13;;;;;;;6.90;6.30;;;12.20;99.90;;;;;;5019258;28;20451;-92
2023/09/25 00:06:41;;;;;;;11.07;7.60;;;;;;;;;;5020097;28;20506;-91
2023/09/25 00:09:08;;;;;;;8.87;6.67;;;12.10;99.90;;;;;;5021796;28;20466;-90
2023/09/25 00:11:35;;;;;;;9.80;7.40;;;;;;;;;;5036764;28;20478;-89
2023/09/25 00:14:13;;;;;;;9.07;8.17;;;12.00;99.90;;;;;;5037530;28;20482;-89
2023/09/25 00:16:40;;;;;;;9.37;7.67;;;;;;;;;;5036979;28;20465;-90
2023/09/25 00:19:09;;;;;;;8.90;6.90;;;;;;;;;;5035683;28;20452;-90
2023/09/25 00:21:37;;;;;;;7.73;6.97;;;;;;;;;;5036031;28;20446;-90
2023/09/25 00:24:04;;;;;;;7.13;6.23;;;11.90;99.90;;;;;;5038355;28;20474;-89
2023/09/25 00:26:31;;;;;;;8.13;7.23;;;;;;;;;;5038324;28;20443;-89
2023/09/25 00:28:58;;;;;;;14.50;7.30;;;11.70;99.90;;;;;;5038164;28;20514;-89
2023/09/25 00:31:25;;;;;;;7.90;6.63;;;12.10;99.90;;;;;;5037973;28;20495;-90
2023/09/25 00:33:52;;;;;;;9.67;7.80;;;;;;;;;;5038097;28;20467;-90
2023/09/25 00:36:21;;;;;;;8.00;7.10;;;;;;;;;;5038000;28;20435;-90
2023/09/25 00:38:48;;;;;;;8.77;7.97;;;;;;;;;;5038337;28;20439;-88
2023/09/25 00:41:15;;;;;;;8.10;7.30;;;;;;;;;;5038040;28;20467;-89
2023/09/25 00:43:42;;;;;;;9.10;6.13;;;11.80;99.90;;;;;;5037879;28;20507;-89
2023/09/25 00:46:10;;;;;;;7.40;6.70;;;11.80;99.90;;;;;;5038318;28;20426;-89
2023/09/25 00:48:42;;;;;;;8.33;7.23;;;;;;;;;;5038072;28;20444;-89
2023/09/25 00:51:10;;;;;;;7.00;6.30;;;11.70;99.90;;;;;;5038194;28;20447;-88
2023/09/25 00:53:41;;;;;;;8.60;7.70;;;11.50;99.90;;;;;;5038122;28;20479;-89
2023/09/25 00:56:08;;;;;;;9.20;7.00;;;12.00;99.90;;;;;;5038251;28;20435;-89
2023/09/25 00:58:35;;;;;;;8.00;7.20;;;;;;;;;;5038169;28;20423;-90
2023/09/25 01:01:02;;;;;;;11.30;7.20;;;;;;;;;;5041630;28;20495;-89
2023/09/25 01:03:31;;;;;;;8.77;7.93;;;11.60;99.90;;;;;;5041798;28;20514;-89
2023/09/25 01:06:01;;;;;;;8.27;7.40;;;11.50;99.90;;;;;;5041775;28;20442;-89
2023/09/25 01:08:28;;;;;;;9.60;7.70;;;;;;;;;;5041849;28;20443;-89
2023/09/25 01:10:56;;;;;;;8.47;7.67;;;11.40;99.90;;;;;;5041679;28;20455;-89
2023/09/25 01:13:23;;;;;;;9.33;7.70;;;11.40;99.90;;;;;;5041704;28;20475;-89
2023/09/25 01:15:50;;;;;;;8.63;7.10;;;11.40;99.90;;;;;;5031435;28;20451;-90
2023/09/25 01:18:18;;;;;;;8.30;7.23;;;11.20;99.90;;;;;;5026976;28;20455;-89
2023/09/25 01:20:45;;;;;;;9.07;7.23;;;;;;;;;;5040882;28;20435;-89
2023/09/25 01:23:14;;;;;;;8.00;7.20;;;11.50;99.90;;;;;;5030526;28;20494;-90
2023/09/25 01:25:41;;;;;;;10.37;8.30;;;;;;;;;;5020538;28;20482;-89
2023/09/25 01:28:09;;;;;;;7.07;6.40;;;11.40;99.90;;;;;;5019736;28;20912;-91
2023/09/25 01:30:36;;;;;;;7.67;6.83;;;;;;;;;;5019121;28;20843;-90
2023/09/25 01:33:04;;;;;;;9.10;7.30;;;11.40;99.90;;;;;;5021978;28;20486;-90
2023/09/25 01:35:31;;;;;;;11.33;7.73;;;;;;;;;;5022653;28;20435;-91
2023/09/25 01:38:00;;;;;;;8.70;7.00;;;11.40;99.90;;;;;;5026612;28;20524;-90
2023/09/25 01:40:30;;;;;;;7.97;6.87;;;;;;;;;;5018739;28;20486;-91
2023/09/25 01:42:57;;;;;;;8.47;7.67;;;11.40;99.90;;;;;;5018959;28;20519;-91
2023/09/25 01:45:25;;;;;;;8.67;7.67;;;10.60;99.90;;;;;;5018382;28;20450;-91
2023/09/25 01:47:53;;;;;;;9.20;7.30;;;11.40;99.90;;;;;;5021147;28;20498;-90
2023/09/25 01:50:22;;;;;;;8.43;7.63;;;11.30;99.90;;;;;;5025326;28;20447;-91
2023/09/25 01:52:51;;;;;;;8.07;7.00;;;11.30;99.90;;;;;;5019708;28;20505;-90
2023/09/25 01:55:21;;;;;;;8.53;7.30;;;11.30;99.90;;;;;;5024672;28;20432;-90
2023/09/25 01:57:50;;;;;;;9.93;7.17;;;11.00;99.90;;;;;;5027893;28;20422;-90
2023/09/25 02:00:18;;;;;;;8.37;7.50;;;11.20;99.90;;;;;;5019983;28;20440;-90
2023/09/25 02:02:45;;;;;;;8.63;7.87;;;;;;;;;;5019262;28;20478;-90
2023/09/25 02:05:13;;;;;;;9.70;7.83;;;;;;;;;;5019962;28;20534;-90
2023/09/25 02:07:41;;;;;;;8.00;7.20;;;;;;;;;;5021313;28;20427;-90
2023/09/25 02:10:09;;;;;;;9.67;7.40;;;11.20;99.90;;;;;;5018326;28;20455;-90
2023/09/25 02:12:36;;;;;;;9.93;6.97;;;;;;;;;;5019179;28;20498;-90
2023/09/25 02:15:07;;;;;;;8.10;7.30;;;11.00;99.90;;;;;;5018832;28;20862;-91
2023/09/25 02:17:34;;;;;;;8.87;7.33;;;;;;;;;;5018965;28;20451;-90
2023/09/25 02:20:15;;;;;;;9.27;7.33;;;;;;;;;;5019413;28;20446;-90
2023/09/25 02:22:43;;;;;;;8.50;7.40;;;;;;;;;;5018829;28;20455;-90
2023/09/25 02:25:11;;;;;;;7.73;6.93;;;;;;;;;;5019514;28;20451;-90
2023/09/25 02:27:38;;;;;;;9.20;7.30;;;;;;;;;;5023754;28;20439;-90
2023/09/25 02:30:08;;;;;;;9.80;7.43;;;10.90;99.90;;;;;;5027016;28;20901;-91
2023/09/25 02:32:35;;;;;;;8.53;7.63;;;10.90;99.90;;;;;;5018804;28;20478;-90
2023/09/25 02:35:02;;;;;;;7.60;6.90;;;;;;;;;;5020995;28;20475;-91
2023/09/25 02:37:30;;;;;;;9.87;8.20;;;10.90;99.90;;;;;;5025553;28;20423;-90
2023/09/25 02:39:58;;;;;;;8.10;7.00;;;;;;;;;;5037694;28;20449;-91
2023/09/25 02:42:25;;;;;;;9.03;8.13;;;;;;;;;;5030468;28;20459;-91
2023/09/25 02:44:52;;;;;;;9.10;7.20;;;;;;;;;;5017727;28;20506;-90
2023/09/25 02:47:21;;;;;;;9.77;8.20;;;10.80;99.90;;;;;;5020351;28;20416;-91
2023/09/25 02:49:48;;;;;;;9.93;8.10;;;;;;;;;;5031921;28;20462;-90
2023/09/25 02:52:17;;;;;;;10.97;8.30;;;10.80;99.90;;;;;;5039745;28;20447;-91
2023/09/25 02:54:44;;;;;;;8.50;7.43;;;10.60;99.90;;;;;;5039637;28;20428;-91
2023/09/25 02:57:11;;;;;;;10.87;8.20;;;;;;;;;;5023310;28;20479;-91
2023/09/25 02:59:38;;;;;;;9.00;8.10;;;10.50;99.90;;;;;;5019238;28;20510;-89
2023/09/25 03:02:06;;;;;;;13.70;7.30;;;;;;;;;;5018561;28;20850;-91
2023/09/25 03:04:38;;;;;;;10.30;7.83;;;10.80;99.90;;;;;;5020699;28;20999;-91
2023/09/25 03:07:05;;;;;;;10.83;9.23;;;;;;;;;;5021209;28;20496;-92
2023/09/25 03:09:33;;;;;;;9.17;7.97;;;;;;;;;;5019845;28;20447;-91
2023/09/25 03:12:01;;;;;;;8.67;7.77;;;;;;;;;;5017954;28;20471;-91
2023/09/25 03:14:28;;;;;;;9.53;7.80;;;;;;;;;;5016745;28;20439;-89
2023/09/25 03:16:58;;;;;;;15.07;7.97;;;;;;;;;;5018169;28;20434;-89
2023/09/25 03:19:35;;;;;;;12.43;7.60;;;;;;;;;;5021399;28;20451;-90
2023/09/25 03:22:15;;;;;;;10.57;7.10;;;;;;;;;;5021803;28;20501;-90
2023/09/25 03:24:42;;;;;;;12.10;8.70;;;;;;;;;;5020998;28;20471;-90
2023/09/25 03:27:11;;;;;;;9.60;7.70;;;;;;;;;;5023673;28;20478;-90
2023/09/25 03:29:38;;;;;;;11.00;8.03;;;;;;;;;;5023246;28;20440;-90
2023/09/25 03:32:05;;;;;;;11.50;7.63;;;;;;;;;;5019045;28;20562;-90
2023/09/25 03:34:33;;;;;;;10.13;7.70;;;;;;;;;;5020724;28;20455;-90
2023/09/25 03:37:00;;;;;;;9.83;7.60;;;;;;;;;;5020625;28;20526;-90
2023/09/25 03:39:32;;;;;;;8.07;7.23;;;;;;;;;;5021031;28;20459;-90
2023/09/25 03:41:59;;;;;;;9.57;8.50;;;;;;;;;;5020573;28;20490;-90
2023/09/25 03:44:44;;;;;;;8.80;7.90;;;;;;;;;;5037394;28;20459;-90
2023/09/25 03:47:13;;;;;;;7.90;7.10;;;10.60;99.90;;;;;;5038297;28;20395;-88
2023/09/25 03:49:42;;;;;;;7.70;6.97;;;;;;;;;;5038230;28;20443;-90
2023/09/25 03:52:09;;;;;;;8.73;7.40;;;;;;;;;;5034658;28;20468;-90
2023/09/25 03:54:39;;;;;;;10.23;7.77;;;;;;;;;;5022345;28;20439;-90
2023/09/25 03:57:07;;;;;;;10.57;8.20;;;;;;;;;;5023495;28;20541;-90
2023/09/25 03:59:34;;;;;;;11.20;7.47;;;;;;;;;;5019851;28;20459;-91
2023/09/25 04:02:01;;;;;;;8.50;7.60;;;;;;;;;;5020392;28;20489;-90
2023/09/25 04:04:29;;;;;;;11.90;8.67;;;;;;;;;;5021682;28;21022;-90
2023/09/25 04:06:56;;;;;;;14.87;9.10;;;;;;;;;;5021301;28;20451;-90
2023/09/25 04:09:23;;;;;;;10.97;8.30;;;;;;;;;;5020401;28;20447;-90
2023/09/25 04:11:53;;;;;;;9.47;8.23;;;;;;;;;;5020405;28;20521;-90
2023/09/25 04:14:22;;;;;;;11.33;7.90;;;;;;;;;;5020849;28;20455;-90
2023/09/25 04:16:52;;;;;;;9.57;8.50;;;;;;;;;;5021094;28;20435;-90
2023/09/25 04:19:21;;;;;;;13.10;8.70;;;;;;;;;;5020848;28;20812;-90
2023/09/25 04:21:48;;;;;;;10.70;9.17;;;;;;;;;;5021395;28;20455;-91
2023/09/25 04:24:19;;;;;;;11.40;9.40;;;;;;;;;;5021862;28;20498;-90
2023/09/25 04:26:48;;;;;;;11.33;9.20;;;;;;;;;;5021351;28;20458;-90
2023/09/25 04:29:17;;;;;;;12.40;9.27;;;10.40;99.90;;;;;;5032535;28;20439;-90
2023/09/25 04:31:48;;;;;;;11.47;8.67;;;10.30;99.90;;;;;;5033276;28;20456;-90
2023/09/25 04:34:16;;;;;;;15.83;9.80;;;;;;;;;;5023919;28;20444;-90
2023/09/25 04:36:45;;;;;;;11.40;9.73;;;;;;;;;;5026606;28;20459;-90
2023/09/25 04:39:16;;;;;;;21.33;9.60;;;;;;;;;;5026037;28;20447;-91
2023/09/25 04:41:46;;;;;;;12.93;9.73;;;;;;;;;;5028645;28;20490;-91
2023/09/25 04:44:13;;;;;;;12.67;9.70;;;10.40;99.90;;;;;;5031096;28;20858;-91
2023/09/25 04:46:42;;;;;;;11.83;9.67;;;;;;;;;;5026393;28;21051;-90
2023/09/25 04:49:12;;;;;;;10.87;9.17;;;;;;;;;;5039430;28;20453;-90
2023/09/25 04:51:40;;;;;;;10.23;8.77;;;;;;;;;;5041773;28;20453;-90
2023/09/25 04:54:08;;;;;;;10.30;8.73;;;10.40;99.90;;;;;;5038189;28;20542;-90
2023/09/25 04:56:36;;;;;;;8.57;7.40;;;;;;;;;;5025321;28;20444;-90
2023/09/25 04:59:05;;;;;;;11.37;8.57;;;10.60;99.90;;;;;;5025195;28;20546;-89
2023/09/25 05:01:32;;;;;;;11.00;9.07;;;;;;;;;;5027443;28;20458;-89
2023/09/25 05:04:00;;;;;;;10.50;8.57;;;10.40;99.90;;;;;;5027743;28;20471;-90
2023/09/25 05:06:28;;;;;;;10.53;8.97;;;;;;;;;;5024966;28;20530;-90
2023/09/25 05:08:55;;;;;;;17.20;9.00;;;;;;;;;;5022782;28;20447;-90
2023/09/25 05:11:22;;;;;;;11.43;9.13;;;10.40;99.90;;;;;;5021527;28;20457;-90
2023/09/25 05:13:49;;;;;;;11.73;9.40;;;10.40;99.90;;;;;;5033000;28;20442;-90
2023/09/25 05:16:16;;;;;;;11.40;9.47;;;10.10;99.90;;;;;;5039002;28;20467;-90
2023/09/25 05:18:43;;;;;;;13.40;8.97;;;;;;;;;;5037580;28;20439;-90
2023/09/25 05:21:12;;;;;;;13.43;10.53;;;10.40;99.90;;;;;;5039568;28;20462;-90
2023/09/25 05:23:39;;;;;;;11.00;9.17;;;10.80;99.90;;;;;;5035510;28;20443;-90
2023/09/25 05:26:06;;;;;;;10.93;8.70;;;;;;;;;;5040400;28;20530;-89
2023/09/25 05:28:33;;;;;;;12.03;9.53;;;10.60;99.90;;;;;;5037018;28;20454;-89
2023/09/25 05:31:00;;;;;;;9.97;8.97;;;10.50;99.90;;;;;;5024260;28;20457;-90
2023/09/25 05:33:30;;;;;;;13.33;9.47;;;10.50;99.90;;;;;;5024976;28;20553;-90
2023/09/25 05:35:57;;;;;;;11.50;9.43;;;10.50;99.90;;;;;;5027020;28;20499;-90
2023/09/25 05:38:26;;;;;;;12.30;9.13;;;10.50;99.90;;;;;;5024189;28;20448;-90
2023/09/25 05:40:53;;;;;;;11.17;9.30;;;10.60;99.90;;;;;;5024367;28;20451;-90
2023/09/25 05:43:20;;;;;;;12.77;9.83;;;10.60;99.90;;;;;;5024086;28;20475;-90
2023/09/25 05:45:47;;;;;;;13.17;10.30;;;;;;;;;;5022516;28;20550;-90
2023/09/25 05:48:14;;;;;;;12.47;10.00;;;10.70;99.90;;;;;;5023524;28;20471;-90
2023/09/25 05:50:41;;;;;;;15.77;11.57;;;;;;;;;;5023867;28;20471;-91
2023/09/25 05:53:08;;;;;;;13.53;10.37;;;10.70;99.90;;;;;;5022668;28;20955;-91
2023/09/25 05:55:36;;;;;;;12.50;9.60;;;10.80;99.90;;;;;;5023538;28;20531;-91
2023/09/25 05:58:04;;;;;;;11.53;10.23;;;10.80;99.90;;;;;;5023449;28;20509;-90
2023/09/25 06:00:34;;;;;;;18.00;10.40;;;;;;;;;;5026596;28;20444;-90
2023/09/25 06:03:01;;;;;;;16.03;10.40;;;;;;;;;;5033643;28;20433;-90
2023/09/25 06:05:28;;;;;;;18.63;11.50;;;;;;;;;;5024630;28;20477;-90
2023/09/25 06:07:55;;;;;;;16.20;11.70;;;11.10;99.90;;;;;;5023900;28;20447;-90
2023/09/25 06:10:23;;;;;;;17.97;12.57;;;11.10;99.90;;;;;;5022771;28;20547;-90
2023/09/25 06:12:51;;;;;;;13.90;11.80;;;11.20;99.90;;;;;;5022248;28;20534;-90
2023/09/25 06:15:18;;;;;;;17.43;12.60;;;11.20;99.90;;;;;;5020600;28;20440;-90
2023/09/25 06:17:47;;;;;;;18.87;12.63;;;11.30;99.90;;;;;;5021743;28;20511;-90
2023/09/25 06:20:16;;;;;;;15.43;12.50;;;11.30;99.90;;;;;;5029579;28;20462;-90
2023/09/25 06:22:44;;;;;;;16.20;10.70;;;11.30;99.90;;;;;;5038138;28;20459;-90
2023/09/25 06:25:14;;;;;;;16.57;11.60;;;11.40;99.90;;;;;;5039516;28;20468;-90
2023/09/25 06:27:44;;;;;;;19.93;11.47;;;;;;;;;;5030118;28;20434;-90
2023/09/25 06:30:13;;;;;;;19.40;10.23;;;11.70;99.90;;;;;;5029605;28;20505;-89
2023/09/25 06:32:40;;;;;;;14.10;10.70;;;11.40;99.90;;;;;;5029917;28;21062;-90
2023/09/25 06:35:08;;;;;;;17.03;10.97;;;11.60;99.90;;;;;;5025766;28;20474;-90
2023/09/25 06:37:35;;;;;;;11.90;10.47;;;11.60;99.90;;;;;;5027920;28;20439;-90
2023/09/25 06:40:03;;;;;;;11.17;9.60;;;12.00;99.90;;;;;;5024622;28;20479;-90
2023/09/25 06:42:31;;;;;;;12.90;10.93;;;12.00;99.90;;;;;;5023852;28;20483;-90
2023/09/25 06:44:59;;;;;;;13.30;10.87;;;12.10;99.90;;;;;;5025379;28;20573;-90
2023/09/25 06:47:28;;;;;;;15.60;12.43;;;12.10;99.90;;;;;;5031143;28;20446;-89
2023/09/25 06:49:55;;;;;;;12.40;11.10;;;;;;;;;;5039794;28;20419;-90
2023/09/25 06:52:22;;;;;;;14.77;9.50;;;12.10;99.90;;;;;;5039704;28;20524;-90
2023/09/25 06:54:54;;;;;;;13.87;10.77;;;12.20;99.90;;;;;;5149958;23;20565;-88
2023/09/25 06:57:22;;;;;;;10.33;9.27;;;;;;;;;;5059885;23;20513;-89
2023/09/25 06:59:49;;;;;;;14.40;9.83;;;12.10;99.90;;;;;;5038896;28;20447;-90
2023/09/25 07:02:16;;;;;;;11.60;9.77;;;12.50;99.90;;;;;;5046578;28;20461;-90
2023/09/25 07:04:47;;;;;;;9.47;8.50;;;;;;;;;;5051726;28;20496;-90
2023/09/25 07:07:14;;;;;;;10.93;8.57;;;;;;;;;;5051239;28;20455;-89
2023/09/25 07:09:42;;;;;;;11.97;8.90;;;12.60;99.90;;;;;;5043103;28;20462;-89
2023/09/25 07:52:15;;;;;;;10.30;9.27;;;14.20;99.90;;;;;;4753193;30;20480;-88
2023/09/25 08:33:30;;;;;;;7.20;4.97;;;15.80;99.90;;;;;;4969341;28;20807;-88
2023/09/25 08:36:55;;;;;;;5.27;4.77;;;15.80;1.00;;;;;;4925773;29;20537;-88
2023/09/25 09:18:55;;;;;;;5.03;4.53;;;16.90;99.90;;;;;;4963742;28;20433;-88
2023/09/25 09:21:50;;;;;;;12.57;7.43;;;17.00;99.90;;;;;;4954630;23;20499;-87
2023/09/25 09:25:14;;;;;;;6.40;5.80;;;17.10;1.00;;;;;;5020044;28;20439;-87
2023/09/25 09:27:57;;;;;;;5.23;4.83;;;17.20;99.90;;;;;;4978480;28;20524;-87
2023/09/25 09:33:57;;;;;;;8.43;5.40;;;17.30;1.00;;;;;;5032329;28;20491;-87
2023/09/25 09:38:54;;;;;;;6.67;5.97;;;;;;;;;;4985904;28;20461;-90
2023/09/25 09:41:22;;;;;;;6.00;5.40;;;17.50;7.80;;;;;;4985579;28;20512;-89
2023/09/25 09:43:49;;;;;;;6.53;5.83;;;17.50;1.00;;;;;;5000725;28;20473;-90
2023/09/25 09:46:17;;;;;;;6.63;5.93;;;17.50;96.30;;;;;;5001689;28;20470;-90
2023/09/25 09:48:47;;;;;;;7.13;6.43;;;17.60;1.00;;;;;;5019964;28;20476;-89
2023/09/25 09:51:17;;;;;;;5.53;5.13;;;17.70;99.90;;;;;;5012203;28;20436;-90
2023/09/25 09:53:44;;;;;;;6.23;5.73;;;18.10;1.00;;;;;;5010647;28;20466;-90
2023/09/25 09:56:11;;;;;;;7.23;6.63;;;;;;;;;;5013621;28;20489;-90
2023/09/25 09:58:39;;;;;;;6.13;5.50;;;;;;;;;;5009335;28;20456;-90
2023/09/25 10:01:07;;;;;;;7.37;5.33;;;18.00;17.80;;;;;;5013111;28;20461;-90
2023/09/25 10:03:34;;;;;;;9.80;6.53;;;;;;;;;;5013433;28;20445;-90
2023/09/25 10:06:15;;;;;;;6.17;5.60;;;18.10;99.90;;;;;;5010925;28;20468;-90
2023/09/25 10:09:21;;;;;;;8.30;5.70;;;18.20;99.90;;;;;;5004153;28;20439;-92
2023/09/25 10:11:55;;;;;;;5.03;4.60;;;18.20;99.90;;;;;;5006994;28;20431;-91
2023/09/25 10:14:23;;;;;;;6.30;4.90;;;18.30;1.00;;;;;;5009235;28;20469;-90
2023/09/25 10:17:11;;;;;;;5.97;4.27;;;18.30;34.90;;;;;;5004341;28;20503;-90
2023/09/25 10:20:06;;;;;;;5.87;5.37;;;18.40;56.50;;;;;;5010995;28;20454;-90
2023/09/25 10:22:44;;;;;;;5.40;4.60;;;18.50;83.20;;;;;;5003990;28;20453;-91
2023/09/25 10:25:18;;;;;;;5.23;4.73;;;18.50;78.40;;;;;;5003470;28;20434;-91
2023/09/25 10:30:43;;;;;;;7.63;4.70;;;18.60;75.50;;;;;;5009491;28;20459;-90
2023/09/25 10:33:25;;;;;;;5.23;4.27;;;18.70;1.00;;;;;;5003672;28;20471;-91
2023/09/25 10:36:10;;;;;;;7.23;5.30;;;18.90;99.90;;;;;;5002740;28;20441;-91
2023/09/25 10:38:46;;;;;;;5.53;4.90;;;18.80;1.00;;;;;;4999371;28;20531;-91
2023/09/25 10:41:27;;;;;;;4.97;4.57;;;18.90;1.00;;;;;;4999498;28;20489;-91
2023/09/25 10:44:19;;;;;;;11.07;5.30;;;18.90;1.00;;;;;;5000771;28;20452;-91
2023/09/25 10:46:55;;;;;;;10.67;3.97;;;19.00;1.00;;;;;;4999663;28;20620;-91
2023/09/25 10:49:39;;;;;;;5.77;4.70;;;19.10;1.00;;;;;;5000779;28;20460;-91
2023/09/25 10:52:13;;;;;;;5.33;4.83;;;;;;;;;;5018075;28;20458;-90
2023/09/25 10:54:48;;;;;;;4.63;4.30;;;19.10;1.00;;;;;;5019160;28;20434;-90
2023/09/25 10:57:27;;;;;;;5.93;5.43;;;19.10;1.00;;;;;;5017104;28;20491;-91
2023/09/25 11:00:18;;;;;;;5.53;4.70;;;19.10;1.00;;;;;;5000482;28;20949;-91
2023/09/25 11:02:48;;;;;;;11.40;9.30;;;;;;;;;;5000364;28;20432;-91
2023/09/25 11:05:26;;;;;;;6.40;4.90;;;19.20;1.00;;;;;;5000632;28;20462;-90
2023/09/25 11:07:58;;;;;;;4.80;4.40;;;19.10;1.00;;;;;;4999064;28;20477;-90
2023/09/25 11:10:56;;;;;;;4.57;4.20;;;19.40;99.90;;;;;;5000398;28;20492;-90
2023/09/25 11:16:17;;;;;;;4.23;3.83;;;19.10;1.00;;;;;;4972704;28;20422;-92
2023/09/25 11:19:11;;;;;;;;;;;;;;;;;;;;;
2023/09/25 11:22:01;;;;;;;5.43;4.93;;;19.10;1.00;;;;;;5005332;28;20888;-91
2023/09/25 11:24:37;;;;;;;5.83;4.90;;;19.20;1.00;;;;;;5003863;28;20466;-90
2023/09/25 11:27:21;;;;;;;4.87;4.37;;;19.20;1.00;;;;;;5001653;28;20558;-91
2023/09/25 11:30:04;;;;;;;4.73;4.33;;;19.40;1.00;;;;;;4999613;28;20863;-91
2023/09/25 11:32:39;;;;;;;4.27;3.87;;;19.30;1.00;;;;;;4999542;28;20553;-90
2023/09/25 11:35:20;;;;;;;4.80;4.00;;;19.20;1.00;;;;;;5001716;28;20454;-91
2023/09/25 11:38:11;;;;;;;5.57;5.07;;;19.30;1.00;;;;;;5002132;28;20838;-90
2023/09/25 11:40:40;;;;;;;4.73;4.30;;;;;;;;;;5001837;28;20416;-90
2023/09/25 11:43:25;;;;;;;4.80;4.10;;;19.60;99.90;;;;;;4998999;28;20455;-91
2023/09/25 11:45:52;;;;;;;4.27;3.90;;;;;;;;;;5000806;28;20479;-91
2023/09/25 11:48:22;;;;;;;4.43;4.13;;;;;;;;;;5001418;28;20539;-91
2023/09/25 11:50:58;;;;;;;5.13;4.53;;;19.50;1.00;;;;;;5000333;28;20507;-91
2023/09/25 11:53:29;;;;;;;6.10;4.57;;;19.50;1.00;;;;;;5001769;28;20452;-91
2023/09/25 11:56:07;;;;;;;4.43;4.03;;;19.60;1.00;;;;;;5001451;28;20435;-90
2023/09/25 11:58:43;;;;;;;4.30;4.00;;;19.70;1.00;;;;;;5000109;28;20475;-91
2023/09/25 12:01:17;;;;;;;3.60;3.30;;;19.80;1.00;;;;;;5012856;28;20479;-91
2023/09/25 12:03:59;;;;;;;4.83;4.10;;;19.90;1.00;;;;;;4994053;28;20497;-91
2023/09/25 12:06:34;;;;;;;7.20;3.60;;;20.00;1.00;;;;;;5015440;28;20459;-90
2023/09/25 12:09:13;;;;;;;4.50;4.20;;;20.00;1.00;;;;;;5017140;28;20490;-91
2023/09/25 12:11:53;;;;;;;4.47;4.07;;;20.00;1.00;;;;;;5017245;28;20428;-91
2023/09/25 12:14:24;;;;;;;4.73;4.10;;;20.10;1.00;;;;;;5015465;28;20459;-91
2023/09/25 12:17:13;;;;;;;5.57;5.10;;;20.10;1.00;;;;;;5016714;28;20463;-91
2023/09/25 12:23:01;;;;;;;4.87;4.47;;;20.10;1.00;;;;;;4996336;28;20479;-90
2023/09/25 12:25:43;;;;;;;5.73;5.07;;;20.10;1.00;;;;;;5018269;28;20467;-90
2023/09/25 12:28:23;;;;;;;6.60;5.00;;;20.60;1.00;;;;;;5018045;28;20460;-90
2023/09/25 12:30:56;;;;;;;6.83;4.90;;;20.80;1.00;;;;;;5018233;28;20429;-90
2023/09/25 12:33:28;;;;;;;5.30;4.47;;;20.30;1.00;;;;;;5013946;28;20539;-90
2023/09/25 12:36:18;;;;;;;7.53;4.13;;;20.30;1.00;;;;;;5006235;28;20540;-90
2023/09/25 12:38:55;;;;;;;3.93;3.40;;;20.40;1.00;;;;;;5002081;28;20468;-90
2023/09/25 12:41:48;;;;;;;4.40;4.00;;;20.40;1.00;;;;;;5002874;28;20452;-90
2023/09/25 12:44:29;;;;;;;4.20;3.87;;;20.50;1.00;;;;;;5000207;28;20504;-90
2023/09/25 12:47:05;;;;;;;8.23;4.47;;;20.50;1.00;;;;;;4999788;28;20861;-89
2023/09/25 12:49:44;;;;;;;3.70;3.50;;;20.50;1.00;;;;;;5000791;28;20444;-91
2023/09/25 12:52:18;;;;;;;4.73;4.27;;;;;;;;;;5017090;28;20440;-90
2023/09/25 12:55:03;;;;;;;3.73;3.43;;;20.50;1.00;;;;;;5018779;28;20405;-89
2023/09/25 12:57:50;;;;;;;3.60;3.10;;;20.60;1.00;;;;;;5021437;28;20468;-89
2023/09/25 13:00:33;;;;;;;9.47;5.20;;;20.60;1.00;;;;;;5021808;28;20522;-90
2023/09/25 13:03:17;;;;;;;3.80;3.50;;;20.20;1.00;;;;;;5021355;28;20433;-91
2023/09/25 13:05:53;;;;;;;3.93;3.63;;;20.70;1.00;;;;;;5015296;28;20479;-90
2023/09/25 13:08:35;;;;;;;4.10;3.30;;;20.70;1.00;;;;;;5019039;28;20487;-91
2023/09/25 13:14:02;;;;;;;2.77;2.57;;;20.70;1.00;;;;;;5018498;28;20456;-91
2023/09/25 13:16:42;;;;;;;3.10;2.80;;;20.70;1.00;;;;;;5013670;28;20444;-91
2023/09/25 13:19:35;;;;;;;2.90;2.70;;;20.80;1.00;;;;;;5010288;28;20444;-90
2023/09/25 13:22:09;;;;;;;4.00;3.40;;;20.80;1.00;;;;;;5008758;28;20472;-91
2023/09/25 13:24:44;;;;;;;2.90;2.67;;;;;;;;;;5007832;28;20404;-91
2023/09/25 13:30:05;;;;;;;3.43;2.20;;;20.90;1.00;;;;;;5009902;28;20424;-90
2023/09/25 13:32:39;;;;;;;3.40;3.03;;;20.80;1.00;;;;;;5012885;28;20468;-90
2023/09/25 13:35:25;;;;;;;2.87;2.70;;;20.80;1.00;;;;;;5008882;28;20452;-90
2023/09/25 13:38:10;;;;;;;4.93;3.30;;;20.80;1.00;;;;;;5009270;28;20902;-91
2023/09/25 13:40:49;;;;;;;3.70;2.20;;;20.80;1.00;;;;;;5005309;28;20535;-91
2023/09/25 13:43:31;;;;;;;5.60;5.00;;;20.80;1.00;;;;;;5005443;28;20437;-90
2023/09/25 13:45:58;;;;;;;3.87;3.57;;;;;;;;;;5006999;28;20456;-91
2023/09/25 13:48:44;;;;;;;3.73;3.40;;;20.70;1.00;;;;;;5002412;28;20461;-91
2023/09/25 13:51:43;;;;;;;3.13;2.90;;;20.70;1.00;;;;;;5004879;28;20457;-90
2023/09/25 13:54:23;;;;;;;4.53;3.10;;;20.70;1.00;;;;;;5006962;28;20842;-91
2023/09/25 13:57:04;;;;;;;3.27;3.07;;;20.60;99.90;;;;;;5008698;28;20494;-91
2023/09/25 13:59:39;;;;;;;4.30;3.00;;;20.70;1.00;;;;;;5002300;28;20507;-91
2023/09/25 14:02:16;;;;;;;6.70;2.43;;;20.70;1.00;;;;;;5004850;28;20458;-91
2023/09/25 14:04:57;;;;;;;4.10;2.10;;;20.70;1.00;;;;;;5004648;28;20439;-91
2023/09/25 14:07:34;;;;;;;2.03;1.93;;;20.70;1.00;;;;;;5003033;28;20535;-90
2023/09/25 14:10:06;;;;;;;3.50;2.47;;;;;;;;;;5002234;28;20543;-91
2023/09/25 14:15:36;;;;;;;3.80;1.83;;;20.70;1.00;;;;;;5009351;28;20429;-90
2023/09/25 14:18:31;;;;;;;5.63;2.60;;;20.70;1.00;;;;;;5010220;28;20520;-90
2023/09/25 14:21:17;;;;;;;2.67;2.10;;;20.60;1.00;;;;;;5008518;28;21022;-91
2023/09/25 14:23:48;;;;;;;2.80;2.60;;;20.60;1.00;;;;;;5005754;28;20512;-91
2023/09/25 14:29:13;;;;;;;3.40;2.63;;;;;;;;;;5183020;27;20488;-90
2023/09/25 14:31:43;;;;;;;3.27;3.00;;;;;;;;;;5187703;27;20443;-91
2023/09/25 14:34:13;;;;;;;2.97;2.70;;;;;;;;;;5193332;27;20458;-91
2023/09/25 14:36:46;;;;;;;2.50;2.30;;;;;;;;;;5189360;27;20445;-90
2023/09/25 14:39:14;;;;;;;3.00;2.27;;;;;;;;;;5165332;27;20449;-90
2023/09/25 14:50:57;;;;;;;2.87;2.50;;;20.50;1.00;;;;;;4995609;28;20472;-88
2023/09/25 15:06:20;;;;;;;3.20;3.00;;;20.40;1.00;;;;;;5120020;27;20486;-88
2023/09/25 15:08:52;;;;;;;2.90;2.70;;;;;;;;;;5120805;28;20558;-88
2023/09/25 15:15:23;;;;;;;3.90;2.73;;;20.40;1.00;;;;;;5099741;28;20945;-88
2023/09/25 15:18:18;;;;;;;2.50;2.10;;;20.30;1.00;;;;;;5035404;28;20443;-89
2023/09/25 15:21:30;;;;;;;6.10;4.40;;;20.40;1.00;;;;;;5239149;22;20582;-89
2023/09/25 15:24:25;;;;;;;3.53;2.05;;;20.30;1.00;;;;;;5033585;28;20515;-89
2023/09/25 15:33:58;;;;;;;4.00;2.90;;;20.20;1.00;;;;;;5089079;28;20450;-89
2023/09/25 15:36:58;;;;;;;3.30;3.00;;;20.20;1.00;;;;;;5151991;27;20442;-88
2023/09/25 15:39:35;;;;;;;6.13;5.57;;;20.10;1.00;;;;;;5136871;28;20479;-89
2023/09/25 15:45:23;;;;;;;3.70;3.40;;;20.00;1.00;;;;;;5125434;28;20473;-88
2023/09/25 15:51:00;;;;;;;3.03;2.80;;;19.80;1.00;;;;;;5122203;28;20549;-89
2023/09/25 15:53:36;;;;;;;3.63;3.33;;;;;;;;;;5123972;28;20411;-88
2023/09/25 15:56:14;;;;;;;3.83;3.57;;;19.80;1.00;;;;;;5124663;28;20431;-88
2023/09/25 15:58:41;;;;;;;4.33;3.10;;;;;;;;;;5125839;28;20495;-88
2023/09/25 16:01:09;;;;;;;3.40;3.10;;;;;;;;;;5130565;28;20538;-88
2023/09/25 16:03:37;;;;;;;3.50;3.20;;;;;;;;;;5131132;28;20476;-88
2023/09/25 16:06:04;;;;;;;4.57;3.57;;;;;;;;;;5133199;28;20462;-88
2023/09/25 16:08:40;;;;;;;7.13;4.20;;;19.50;99.90;;;;;;5134499;28;20462;-88
2023/09/25 16:11:09;;;;;;;4.27;3.87;;;;;;;;;;5132174;28;20479;-89
2023/09/25 16:13:39;;;;;;;3.87;2.90;;;;;;;;;;5132673;28;20889;-88
2023/09/25 16:19:10;;;;;;;3.67;3.03;;;19.30;1.00;;;;;;5121869;28;20474;-88
2023/09/25 16:21:37;;;;;;;4.10;3.80;;;;;;;;;;5130912;28;20479;-88
2023/09/25 16:24:05;;;;;;;3.57;2.93;;;19.20;99.90;;;;;;5139034;28;20439;-88
2023/09/25 16:26:34;;;;;;;4.70;4.30;;;19.10;99.90;;;;;;5133027;28;20508;-88
2023/09/25 16:29:02;;;;;;;4.07;3.70;;;;;;;;;;5133939;28;20505;-89
2023/09/25 16:31:29;;;;;;;4.30;3.90;;;;;;;;;;5136270;28;20542;-88
2023/09/25 16:33:56;;;;;;;5.53;4.93;;;;;;;;;;5139224;28;20461;-88
2023/09/25 16:36:29;;;;;;;5.53;4.80;;;;;;;;;;5140827;28;20451;-88
2023/09/25 16:39:07;;;;;;;9.13;4.10;;;18.80;1.00;;;;;;5134868;28;20439;-88
2023/09/25 16:41:48;;;;;;;5.60;4.60;;;18.80;1.00;;;;;;5135079;28;20542;-88
2023/09/25 16:44:24;;;;;;;4.57;4.03;;;;;;;;;;5137397;28;20434;-88
2023/09/25 16:46:58;;;;;;;5.47;4.97;;;;;;;;;;5128416;28;20506;-89
2023/09/25 16:49:33;;;;;;;5.37;4.50;;;;;;;;;;5128311;28;20474;-89
2023/09/25 16:55:11;;;;;;;4.63;4.23;;;18.60;51.20;;;;;;5123968;28;20455;-88
2023/09/25 17:06:12;;;;;;;5.13;4.67;;;;;;;;;;5138332;28;20433;-89
2023/09/25 17:08:52;;;;;;;6.07;5.47;;;;;;;;;;5132483;28;20910;-89
2023/09/25 17:11:51;;;;;;;;;;;;;;;;;;;;;
2023/09/25 17:14:39;;;;;;;7.60;6.13;;;18.40;10.10;;;;;;5134423;28;20442;-88
2023/09/25 17:17:17;;;;;;;9.80;7.70;;;;;;;;;;5134205;28;20567;-88
2023/09/25 17:19:54;;;;;;;8.47;6.90;;;;;;;;;;5128521;28;20465;-88